Time;durP1;ratioP1;P1;durP2;ratioP2;P2;SDS_P1;SDS_P2;PMS_P1;PMS_P2;Temp;Humidity;BMP_temperature;BMP_pressure;BME280_temperature;BME280_humidity;BME280_pressure;Samples;Min_cycle;Max_cycle;Signal;HPM_P1;HPM_P2
2022/03/31 00:00:30;;;;;;;5.90;1.58;;;;;;;;;;6140276;23;20022;-53
2022/03/31 00:02:56;;;;;;;2.03;1.55;;;;;;;;;;6120130;23;20021;-49
2022/03/31 00:05:21;;;;;;;5.53;1.85;;;;;;;;;;6116619;23;20014;-51
2022/03/31 00:07:59;;;;;;;2.45;1.42;;;;;;;;;;6120474;23;20078;-50
2022/03/31 00:10:26;;;;;;;2.30;1.42;;;;;;;;;;6140181;23;20006;-50
2022/03/31 00:12:52;;;;;;;4.00;1.52;;;;;;;;;;6119198;23;20013;-52
2022/03/31 00:15:18;;;;;;;5.25;1.90;;;;;;;;;;6117313;23;20046;-51
2022/03/31 00:17:43;;;;;;;5.32;1.92;;;;;;;;;;6120478;23;20021;-51
2022/03/31 00:20:10;;;;;;;5.30;1.90;;;;;;;;;;6118555;23;20021;-50
2022/03/31 00:22:36;;;;;;;3.63;1.80;;;;;;;;;;6119703;23;20836;-51
2022/03/31 00:25:01;;;;;;;4.93;1.73;;;;;;;;;;6117835;23;20013;-52
2022/03/31 00:27:26;;;;;;;2.00;1.60;;;;;;;;;;6119528;23;20524;-48
2022/03/31 00:29:51;;;;;;;5.22;1.63;;;;;;;;;;6118575;23;20018;-54
2022/03/31 00:32:17;;;;;;;2.65;1.77;;;;;;;;;;6120037;23;20066;-49
2022/03/31 00:34:42;;;;;;;3.40;1.85;;;;;;;;;;6118726;23;20046;-52
2022/03/31 00:37:07;;;;;;;3.25;1.92;;;;;;;;;;6120739;23;20930;-53
2022/03/31 00:39:32;;;;;;;6.18;2.17;;;;;;;;;;6117670;23;20357;-53
2022/03/31 00:41:59;;;;;;;3.60;1.55;;;;;;;;;;6121191;23;20085;-53
2022/03/31 00:44:26;;;;;;;3.15;1.80;;;;;;;;;;6116883;23;20804;-49
2022/03/31 00:46:52;;;;;;;2.67;1.92;;;;;;;;;;6119818;23;20077;-54
2022/03/31 00:49:21;;;;;;;6.75;2.13;;;;;;;;;;6116359;23;20041;-50
2022/03/31 00:51:46;;;;;;;3.15;1.80;;;;;;;;;;6120873;23;20021;-53
2022/03/31 00:54:12;;;;;;;4.55;1.85;;;;;;;;;;6118554;23;20029;-54
2022/03/31 00:56:37;;;;;;;2.40;2.10;;;;;;;;;;6119681;23;20022;-52
2022/03/31 00:59:04;;;;;;;5.93;2.20;;;;;;;;;;6117386;23;20068;-52
2022/03/31 01:01:31;;;;;;;6.32;2.25;;;;;;;;;;6119092;23;20109;-51
2022/03/31 01:03:57;;;;;;;3.78;2.95;;;;;;;;;;6117801;23;20313;-52
2022/03/31 01:06:22;;;;;;;9.00;2.38;;;;;;;;;;6116616;23;20010;-49
2022/03/31 01:08:47;;;;;;;3.05;2.40;;;;;;;;;;6116918;23;20021;-50
2022/03/31 01:11:13;;;;;;;6.78;3.22;;;;;;;;;;6119221;23;20029;-51
2022/03/31 01:13:38;;;;;;;4.57;2.78;;;;;;;;;;6117729;23;20033;-51
2022/03/31 01:16:04;;;;;;;5.50;3.15;;;;;;;;;;6119668;23;20089;-51
2022/03/31 01:18:29;;;;;;;3.55;2.72;;;;;;;;;;6116151;23;20061;-48
2022/03/31 01:20:54;;;;;;;5.50;3.13;;;;;;;;;;6119863;23;20018;-51
2022/03/31 01:23:21;;;;;;;4.50;2.78;;;;;;;;;;6116387;23;20010;-50
2022/03/31 01:25:46;;;;;;;10.60;3.60;;;;;;;;;;6119844;23;20097;-53
2022/03/31 01:28:12;;;;;;;10.63;4.00;;;;;;;;;;6118206;23;20764;-50
2022/03/31 01:30:37;;;;;;;8.20;4.20;;;;;;;;;;6118700;23;20069;-52
2022/03/31 01:33:02;;;;;;;7.60;4.18;;;;;;;;;;6118209;23;20462;-52
2022/03/31 01:35:27;;;;;;;8.27;4.03;;;;;;;;;;6119062;23;20430;-51
2022/03/31 01:37:53;;;;;;;11.25;6.05;;;;;;;;;;6117694;23;20021;-49
2022/03/31 01:40:18;;;;;;;7.43;5.40;;;;;;;;;;6118885;23;20048;-48
2022/03/31 01:42:44;;;;;;;12.98;6.68;;;;;;;;;;6115804;23;20022;-52
2022/03/31 01:45:11;;;;;;;16.52;6.70;;;;;;;;;;6118955;23;20025;-51
2022/03/31 01:47:36;;;;;;;9.27;5.70;;;;;;;;;;6116357;23;20603;-50
2022/03/31 01:50:02;;;;;;;11.52;6.70;;;;;;;;;;6119028;23;20763;-52
2022/03/31 01:52:28;;;;;;;13.70;6.90;;;;;;;;;;6091641;23;20022;-51
2022/03/31 01:54:53;;;;;;;17.75;5.97;;;;;;;;;;6119914;23;20021;-50
2022/03/31 01:57:18;;;;;;;10.05;6.40;;;;;;;;;;6116696;23;20843;-53
2022/03/31 01:59:44;;;;;;;11.45;6.78;;;;;;;;;;6118891;23;20022;-49
2022/03/31 02:02:11;;;;;;;10.45;6.07;;;;;;;;;;6117046;23;20018;-53
2022/03/31 02:04:37;;;;;;;13.02;6.25;;;;;;;;;;6118186;23;20014;-48
2022/03/31 02:07:02;;;;;;;8.65;5.50;;;;;;;;;;6117443;23;20013;-51
2022/03/31 02:09:28;;;;;;;7.00;4.28;;;;;;;;;;6117691;23;20014;-49
2022/03/31 02:11:53;;;;;;;8.73;5.32;;;;;;;;;;6116868;23;20017;-50
2022/03/31 02:14:22;;;;;;;9.60;4.88;;;;;;;;;;6118515;23;20020;-53
2022/03/31 02:16:47;;;;;;;6.97;4.70;;;;;;;;;;6116919;23;20022;-51
2022/03/31 02:19:13;;;;;;;6.78;4.45;;;;;;;;;;6119290;23;20101;-53
2022/03/31 02:21:38;;;;;;;13.75;5.30;;;;;;;;;;6116431;23;20049;-51
2022/03/31 02:24:04;;;;;;;10.27;6.07;;;;;;;;;;6119028;23;20022;-52
2022/03/31 02:26:29;;;;;;;10.77;6.57;;;;;;;;;;6116617;23;20088;-54
2022/03/31 02:28:54;;;;;;;13.02;6.95;;;;;;;;;;6119310;23;20017;-50
2022/03/31 02:31:19;;;;;;;14.13;8.02;;;;;;;;;;6115727;23;20065;-51
2022/03/31 02:33:45;;;;;;;12.18;7.05;;;;;;;;;;6117639;23;20017;-52
2022/03/31 02:36:11;;;;;;;12.48;7.45;;;;;;;;;;6117212;23;20030;-53
2022/03/31 02:38:36;;;;;;;17.23;7.95;;;;;;;;;;6112922;23;20010;-48
2022/03/31 02:41:03;;;;;;;13.93;8.27;;;;;;;;;;6114392;23;20018;-50
2022/03/31 02:43:28;;;;;;;11.05;6.68;;;;;;;;;;6109678;23;20049;-50
2022/03/31 02:45:53;;;;;;;12.88;7.97;;;;;;;;;;6117803;23;20090;-47
2022/03/31 02:48:19;;;;;;;10.98;6.30;;;;;;;;;;6119108;23;20540;-49
2022/03/31 02:50:44;;;;;;;14.48;7.32;;;;;;;;;;6117446;23;20479;-52
2022/03/31 02:56:04;;;;;;;10.93;6.55;;;;;;;;;;6039374;23;20671;-52
2022/03/31 02:58:29;;;;;;;16.70;6.38;;;;;;;;;;6117318;23;20567;-50
2022/03/31 03:00:55;;;;;;;14.95;8.10;;;;;;;;;;6118643;23;20021;-48
2022/03/31 03:03:20;;;;;;;13.68;6.80;;;;;;;;;;6116986;23;20010;-49
2022/03/31 03:05:46;;;;;;;16.60;7.95;;;;;;;;;;6119021;23;20034;-50
2022/03/31 03:08:12;;;;;;;12.50;7.85;;;;;;;;;;6118346;23;20472;-52
2022/03/31 03:10:38;;;;;;;14.00;7.97;;;;;;;;;;6118471;23;20018;-51
2022/03/31 03:13:03;;;;;;;13.07;7.82;;;;;;;;;;6118080;23;20018;-49
2022/03/31 03:15:29;;;;;;;10.73;6.80;;;;;;;;;;6118042;23;20036;-51
2022/03/31 03:17:54;;;;;;;12.40;7.28;;;;;;;;;;6116174;23;20422;-48
2022/03/31 03:20:20;;;;;;;13.00;7.50;;;;;;;;;;6114782;23;20040;-49
2022/03/31 03:22:47;;;;;;;14.63;7.45;;;;;;;;;;6114154;23;20025;-52
2022/03/31 03:25:12;;;;;;;13.85;8.02;;;;;;;;;;6113931;23;20076;-52
2022/03/31 03:27:38;;;;;;;12.73;6.60;;;;;;;;;;6115504;23;20018;-49
2022/03/31 03:30:04;;;;;;;10.60;6.55;;;;;;;;;;6115643;23;20029;-53
2022/03/31 03:32:29;;;;;;;16.55;7.05;;;;;;;;;;6115057;23;20071;-49
2022/03/31 03:34:54;;;;;;;13.85;6.72;;;;;;;;;;6114387;23;20014;-50
2022/03/31 03:37:20;;;;;;;17.70;6.18;;;;;;;;;;6115186;23;20065;-51
2022/03/31 03:39:45;;;;;;;14.25;7.78;;;;;;;;;;6116358;23;20022;-48
2022/03/31 03:42:10;;;;;;;10.73;6.75;;;;;;;;;;6114946;23;20014;-50
2022/03/31 03:44:36;;;;;;;16.88;7.20;;;;;;;;;;6115645;23;20066;-50
2022/03/31 03:47:01;;;;;;;11.23;7.65;;;;;;;;;;6114270;23;20049;-52
2022/03/31 03:49:27;;;;;;;16.75;7.65;;;;;;;;;;6117408;23;20018;-49
2022/03/31 03:51:52;;;;;;;14.85;6.72;;;;;;;;;;6116215;23;20041;-50
2022/03/31 03:54:17;;;;;;;12.45;7.35;;;;;;;;;;6116664;23;20787;-50
2022/03/31 03:56:43;;;;;;;14.38;7.45;;;;;;;;;;6116383;23;20034;-49
2022/03/31 03:59:08;;;;;;;10.07;7.00;;;;;;;;;;6118371;23;20017;-50
2022/03/31 04:01:33;;;;;;;15.93;7.13;;;;;;;;;;6116272;23;20633;-52
2022/03/31 04:03:59;;;;;;;15.02;8.65;;;;;;;;;;6118130;23;20038;-51
2022/03/31 04:06:24;;;;;;;11.40;6.18;;;;;;;;;;6115554;23;20029;-50
2022/03/31 04:08:49;;;;;;;12.55;7.20;;;;;;;;;;6117949;23;20021;-49
2022/03/31 04:11:15;;;;;;;19.45;7.32;;;;;;;;;;6116666;23;20045;-52
2022/03/31 04:13:40;;;;;;;21.08;9.30;;;;;;;;;;6118638;23;20629;-50
2022/03/31 04:16:05;;;;;;;11.65;6.25;;;;;;;;;;6089559;23;20022;-53
2022/03/31 04:18:31;;;;;;;11.00;7.55;;;;;;;;;;6117451;23;20069;-50
2022/03/31 04:20:56;;;;;;;16.05;7.22;;;;;;;;;;6116238;23;20078;-50
2022/03/31 04:23:21;;;;;;;15.57;7.18;;;;;;;;;;6116479;23;20041;-48
2022/03/31 04:25:47;;;;;;;15.40;8.40;;;;;;;;;;6115290;23;20661;-49
2022/03/31 04:28:13;;;;;;;14.15;7.90;;;;;;;;;;6117640;23;20093;-49
2022/03/31 04:30:38;;;;;;;12.93;7.40;;;;;;;;;;6115178;23;20044;-49
2022/03/31 04:33:03;;;;;;;13.95;7.75;;;;;;;;;;6118373;23;20033;-54
2022/03/31 04:35:29;;;;;;;12.43;7.93;;;;;;;;;;6115146;23;20060;-50
2022/03/31 04:37:54;;;;;;;12.27;7.28;;;;;;;;;;6118237;23;20098;-50
2022/03/31 04:40:20;;;;;;;12.30;7.43;;;;;;;;;;6114721;23;20612;-49
2022/03/31 04:42:46;;;;;;;16.40;6.97;;;;;;;;;;6115206;23;20040;-53
2022/03/31 04:45:11;;;;;;;16.75;7.57;;;;;;;;;;6117379;23;20014;-50
2022/03/31 04:47:36;;;;;;;13.32;7.00;;;;;;;;;;6119071;23;20006;-48
2022/03/31 04:50:02;;;;;;;18.13;7.57;;;;;;;;;;6118370;23;20507;-50
2022/03/31 04:52:27;;;;;;;11.88;7.00;;;;;;;;;;6119579;23;20010;-48
2022/03/31 04:54:53;;;;;;;13.38;7.15;;;;;;;;;;6117533;23;20025;-50
2022/03/31 04:57:19;;;;;;;14.50;7.85;;;;;;;;;;6119972;23;20014;-49
2022/03/31 04:59:44;;;;;;;15.07;7.70;;;;;;;;;;6118415;23;20038;-50
2022/03/31 05:02:10;;;;;;;12.80;7.43;;;;;;;;;;6120101;23;20396;-51
2022/03/31 05:04:35;;;;;;;13.15;7.35;;;;;;;;;;6117689;23;20025;-51
2022/03/31 05:07:01;;;;;;;15.15;8.30;;;;;;;;;;6120427;23;20639;-52
2022/03/31 05:09:27;;;;;;;11.68;7.25;;;;;;;;;;6141134;23;20032;-52
2022/03/31 05:11:52;;;;;;;20.27;8.52;;;;;;;;;;6119464;23;20072;-53
2022/03/31 05:14:18;;;;;;;13.43;6.72;;;;;;;;;;6118240;23;20029;-50
2022/03/31 05:16:43;;;;;;;17.13;6.93;;;;;;;;;;6120145;23;20143;-51
2022/03/31 05:19:08;;;;;;;16.65;7.10;;;;;;;;;;6117916;23;20033;-51
2022/03/31 05:21:34;;;;;;;10.93;6.55;;;;;;;;;;6119870;23;20037;-52
2022/03/31 05:23:59;;;;;;;12.35;6.75;;;;;;;;;;6091525;23;20022;-52
2022/03/31 05:26:24;;;;;;;13.70;7.85;;;;;;;;;;6118484;23;20016;-53
2022/03/31 05:28:49;;;;;;;18.88;8.70;;;;;;;;;;6117275;23;20049;-51
2022/03/31 05:31:15;;;;;;;11.45;6.97;;;;;;;;;;6117656;23;20014;-52
2022/03/31 05:33:40;;;;;;;10.25;6.50;;;;;;;;;;6118578;23;20066;-52
2022/03/31 05:36:05;;;;;;;14.30;7.53;;;;;;;;;;6120020;23;20021;-50
2022/03/31 05:38:31;;;;;;;12.32;7.45;;;;;;;;;;6117002;23;20017;-50
2022/03/31 05:40:56;;;;;;;13.15;7.70;;;;;;;;;;6119863;23;20021;-48
2022/03/31 05:43:22;;;;;;;16.42;8.13;;;;;;;;;;6115786;23;20615;-51
2022/03/31 05:45:48;;;;;;;13.45;6.97;;;;;;;;;;6119598;23;20017;-52
2022/03/31 05:48:13;;;;;;;10.60;6.00;;;;;;;;;;6116188;23;20058;-52
2022/03/31 05:50:38;;;;;;;12.38;6.55;;;;;;;;;;6118938;23;20021;-51
2022/03/31 05:53:03;;;;;;;17.80;7.68;;;;;;;;;;6118233;23;20463;-55
2022/03/31 05:55:29;;;;;;;10.05;5.80;;;;;;;;;;6117132;23;20026;-51
2022/03/31 05:57:55;;;;;;;14.65;7.50;;;;;;;;;;6118487;23;20014;-51
2022/03/31 06:00:21;;;;;;;12.38;6.72;;;;;;;;;;6118655;23;20014;-53
2022/03/31 06:02:46;;;;;;;12.45;7.35;;;;;;;;;;6118176;23;20072;-49
2022/03/31 06:05:12;;;;;;;12.70;6.70;;;;;;;;;;6118478;23;20025;-52
2022/03/31 06:07:38;;;;;;;16.92;6.05;;;;;;;;;;6117662;23;20126;-50
2022/03/31 06:10:04;;;;;;;13.65;6.57;;;;;;;;;;6119255;23;20010;-51
2022/03/31 06:12:29;;;;;;;13.95;6.18;;;;;;;;;;6116362;23;20025;-53
2022/03/31 06:14:54;;;;;;;10.80;6.63;;;;;;;;;;6119919;23;20584;-53
2022/03/31 06:17:20;;;;;;;11.73;6.10;;;;;;;;;;6115711;23;20380;-50
2022/03/31 06:19:45;;;;;;;11.65;7.05;;;;;;;;;;6119365;23;20028;-52
2022/03/31 06:22:10;;;;;;;13.88;7.50;;;;;;;;;;6116565;23;20010;-51
2022/03/31 06:24:36;;;;;;;11.05;5.97;;;;;;;;;;6118160;23;20065;-53
2022/03/31 06:27:01;;;;;;;8.98;5.18;;;;;;;;;;6115821;23;20009;-50
2022/03/31 06:29:27;;;;;;;12.15;6.00;;;;;;;;;;6118381;23;20024;-48
2022/03/31 06:31:53;;;;;;;9.73;5.00;;;;;;;;;;6116312;23;20014;-51
2022/03/31 06:34:19;;;;;;;9.98;5.78;;;;;;;;;;6114654;23;20021;-49
2022/03/31 06:36:44;;;;;;;10.25;5.10;;;;;;;;;;6118368;23;20026;-50
2022/03/31 06:39:09;;;;;;;9.23;5.50;;;;;;;;;;6115695;23;20012;-52
2022/03/31 06:41:35;;;;;;;9.07;5.55;;;;;;;;;;6118755;23;20014;-50
2022/03/31 06:44:00;;;;;;;12.90;5.93;;;;;;;;;;6139790;23;20050;-48
2022/03/31 06:46:25;;;;;;;9.68;5.20;;;;;;;;;;6118995;23;20073;-51
2022/03/31 06:48:51;;;;;;;10.38;5.43;;;;;;;;;;6114912;23;20030;-54
2022/03/31 06:51:16;;;;;;;13.32;5.47;;;;;;;;;;6117793;23;20025;-52
2022/03/31 06:53:42;;;;;;;8.98;5.22;;;;;;;;;;6118151;23;20393;-53
2022/03/31 06:56:08;;;;;;;13.93;5.97;;;;;;;;;;6118164;23;20037;-52
2022/03/31 06:58:34;;;;;;;10.18;5.70;;;;;;;;;;6116629;23;20065;-52
2022/03/31 07:00:59;;;;;;;8.02;5.47;;;;;;;;;;6091388;23;20009;-51
2022/03/31 07:03:24;;;;;;;9.60;5.80;;;;;;;;;;6116899;23;20764;-51
2022/03/31 07:05:50;;;;;;;14.27;4.82;;;;;;;;;;6117568;23;20472;-51
2022/03/31 07:08:15;;;;;;;9.52;5.68;;;;;;;;;;6116500;23;20014;-49
2022/03/31 07:10:40;;;;;;;14.38;6.88;;;;;;;;;;6099603;23;20030;-52
2022/03/31 07:13:06;;;;;;;9.15;6.10;;;;;;;;;;6110507;23;20034;-52
2022/03/31 07:15:33;;;;;;;8.57;5.85;;;;;;;;;;6110145;23;20037;-50
2022/03/31 07:18:03;;;;;;;11.82;6.20;;;;;;;;;;6099914;23;20014;-49
2022/03/31 07:20:28;;;;;;;10.57;6.75;;;;;;;;;;6110491;23;20684;-52
2022/03/31 07:22:53;;;;;;;9.90;5.75;;;;;;;;;;6115822;23;20013;-51
2022/03/31 07:25:18;;;;;;;8.43;6.13;;;;;;;;;;6117129;23;20022;-54
2022/03/31 07:27:44;;;;;;;8.95;5.68;;;;;;;;;;6111386;23;20014;-52
2022/03/31 07:30:10;;;;;;;13.07;6.13;;;;;;;;;;6111444;23;20049;-54
2022/03/31 07:32:45;;;;;;;7.60;4.60;;;;;;;;;;6114919;23;20089;-54
2022/03/31 07:35:10;;;;;;;9.07;4.57;;;;;;;;;;6114243;23;20018;-53
2022/03/31 07:37:35;;;;;;;11.60;6.43;;;;;;;;;;6116291;23;20017;-51
2022/03/31 07:40:01;;;;;;;10.55;5.97;;;;;;;;;;6112967;23;20464;-53
2022/03/31 07:42:26;;;;;;;7.40;4.72;;;;;;;;;;6116146;23;20671;-52
2022/03/31 07:44:51;;;;;;;8.15;5.18;;;;;;;;;;6114046;23;20018;-51
2022/03/31 07:47:16;;;;;;;7.68;4.40;;;;;;;;;;6103440;23;20069;-49
2022/03/31 07:49:42;;;;;;;8.57;4.95;;;;;;;;;;6119191;23;20033;-51
2022/03/31 07:52:07;;;;;;;8.10;5.20;;;;;;;;;;6119938;23;20010;-55
2022/03/31 07:54:32;;;;;;;7.43;5.55;;;;;;;;;;6117817;23;20022;-55
2022/03/31 07:56:58;;;;;;;9.88;5.57;;;;;;;;;;6121192;23;20042;-51
2022/03/31 07:59:25;;;;;;;7.75;5.40;;;;;;;;;;6119371;23;20777;-54
2022/03/31 08:01:52;;;;;;;7.00;4.50;;;;;;;;;;6119674;23;20021;-55
2022/03/31 08:04:17;;;;;;;6.93;3.97;;;;;;;;;;6092526;23;20033;-53
2022/03/31 08:06:43;;;;;;;6.82;4.13;;;;;;;;;;6117990;23;20018;-52
2022/03/31 08:09:12;;;;;;;8.45;4.10;;;;;;;;;;6119294;23;20108;-53
2022/03/31 08:11:37;;;;;;;8.25;4.38;;;;;;;;;;6117070;23;20010;-51
2022/03/31 08:14:02;;;;;;;8.07;4.00;;;;;;;;;;6120375;23;20098;-50
2022/03/31 08:16:28;;;;;;;5.53;4.03;;;;;;;;;;6110740;23;20026;-50
2022/03/31 08:18:54;;;;;;;5.13;3.47;;;;;;;;;;6115098;23;20022;-52
2022/03/31 08:21:19;;;;;;;5.25;4.05;;;;;;;;;;6114157;23;20101;-52
2022/03/31 08:23:44;;;;;;;5.65;3.38;;;;;;;;;;6115828;23;20347;-51
2022/03/31 08:26:09;;;;;;;4.45;3.38;;;;;;;;;;6113665;23;20018;-50
2022/03/31 08:28:36;;;;;;;3.78;2.65;;;;;;;;;;6112186;23;20033;-53
2022/03/31 08:31:01;;;;;;;4.43;2.97;;;;;;;;;;6116201;23;20028;-53
2022/03/31 08:33:27;;;;;;;6.05;3.60;;;;;;;;;;6112782;23;20033;-49
2022/03/31 08:35:52;;;;;;;4.90;3.30;;;;;;;;;;6116373;23;20077;-52
2022/03/31 08:38:17;;;;;;;4.22;2.50;;;;;;;;;;6116482;23;20022;-53
2022/03/31 08:40:43;;;;;;;3.17;2.70;;;;;;;;;;6107056;23;20018;-50
2022/03/31 08:43:09;;;;;;;7.55;3.25;;;;;;;;;;6118373;23;20084;-54
2022/03/31 08:45:35;;;;;;;3.42;2.97;;;;;;;;;;6112063;23;20069;-50
2022/03/31 08:48:01;;;;;;;5.13;3.22;;;;;;;;;;6115085;23;20025;-55
2022/03/31 08:50:27;;;;;;;5.40;3.03;;;;;;;;;;6118362;23;20018;-53
2022/03/31 08:52:53;;;;;;;8.30;3.33;;;;;;;;;;6087874;23;20021;-54
2022/03/31 08:55:19;;;;;;;5.03;3.53;;;;;;;;;;6119073;23;20105;-50
2022/03/31 08:57:45;;;;;;;8.93;3.67;;;;;;;;;;6117996;23;20041;-53
2022/03/31 09:00:12;;;;;;;8.30;4.45;;;;;;;;;;6119143;23;20024;-53
2022/03/31 09:02:38;;;;;;;6.22;3.60;;;;;;;;;;6117698;23;20009;-50
2022/03/31 09:05:09;;;;;;;8.93;3.65;;;;;;;;;;6117144;23;20025;-53
2022/03/31 09:07:35;;;;;;;9.50;3.13;;;;;;;;;;6119013;23;20010;-52
2022/03/31 09:10:00;;;;;;;3.80;3.03;;;;;;;;;;6116758;23;20101;-55
2022/03/31 09:12:35;;;;;;;5.07;2.70;;;;;;;;;;6118916;23;20010;-53
2022/03/31 09:15:07;;;;;;;5.05;2.95;;;;;;;;;;6117408;23;20465;-53
2022/03/31 09:17:35;;;;;;;5.60;2.53;;;;;;;;;;6118497;23;22573;-50
2022/03/31 09:20:00;;;;;;;5.85;3.17;;;;;;;;;;6116799;23;20081;-51
2022/03/31 09:22:25;;;;;;;6.05;3.38;;;;;;;;;;6119088;23;20018;-52
2022/03/31 09:25:00;;;;;;;7.85;2.88;;;;;;;;;;6116423;23;20022;-54
2022/03/31 09:27:25;;;;;;;5.18;2.67;;;;;;;;;;6119422;23;20032;-54
2022/03/31 09:29:50;;;;;;;8.43;3.95;;;;;;;;;;6116590;23;20014;-49
2022/03/31 09:32:15;;;;;;;6.63;3.33;;;;;;;;;;6118608;23;20345;-51
2022/03/31 09:34:42;;;;;;;5.50;3.35;;;;;;;;;;6117173;23;20010;-52
2022/03/31 09:37:07;;;;;;;13.55;4.55;;;;;;;;;;6118844;23;20014;-53
2022/03/31 09:39:33;;;;;;;9.02;4.53;;;;;;;;;;6116211;23;20010;-52
2022/03/31 09:41:58;;;;;;;7.93;4.80;;;;;;;;;;6119780;23;20033;-51
2022/03/31 09:44:25;;;;;;;9.10;4.47;;;;;;;;;;6116774;23;20132;-52
2022/03/31 09:46:51;;;;;;;5.10;4.10;;;;;;;;;;6112444;23;20516;-53
2022/03/31 09:49:17;;;;;;;5.82;4.22;;;;;;;;;;6118011;23;20018;-49
2022/03/31 09:51:43;;;;;;;11.73;4.32;;;;;;;;;;6118238;23;20199;-51
2022/03/31 09:54:09;;;;;;;9.35;3.78;;;;;;;;;;6118458;23;20532;-52
2022/03/31 09:56:35;;;;;;;8.50;4.28;;;;;;;;;;6116875;23;20061;-51
2022/03/31 09:59:03;;;;;;;12.93;4.72;;;;;;;;;;6089484;23;20018;-50
2022/03/31 10:01:28;;;;;;;20.20;4.35;;;;;;;;;;6117476;23;20010;-51
2022/03/31 10:03:55;;;;;;;6.07;4.03;;;;;;;;;;6116097;23;20095;-49
2022/03/31 10:06:20;;;;;;;5.45;4.55;;;;;;;;;;6118052;23;20018;-52
2022/03/31 10:08:47;;;;;;;7.95;4.00;;;;;;;;;;6112367;23;20068;-53
2022/03/31 10:11:13;;;;;;;6.13;4.22;;;;;;;;;;6117794;23;20014;-51
2022/03/31 10:13:45;;;;;;;7.25;4.90;;;;;;;;;;6116131;23;20014;-49
2022/03/31 10:16:16;;;;;;;5.95;4.32;;;;;;;;;;6116453;23;20061;-51
2022/03/31 10:18:44;;;;;;;5.57;3.90;;;;;;;;;;6115716;23;20017;-48
2022/03/31 10:21:09;;;;;;;8.23;4.18;;;;;;;;;;6111966;23;20037;-53
2022/03/31 10:26:22;;;;;;;8.13;4.57;;;;;;;;;;6115215;23;20295;-50
2022/03/31 10:28:57;;;;;;;7.23;4.10;;;;;;;;;;6114305;23;20063;-50
2022/03/31 10:31:33;;;;;;;8.45;4.53;;;;;;;;;;6116259;23;20268;-49
2022/03/31 10:33:58;;;;;;;16.70;6.45;;;;;;;;;;6116671;23;20010;-49
2022/03/31 10:36:23;;;;;;;12.40;4.70;;;;;;;;;;6117633;23;20074;-51
2022/03/31 10:38:56;;;;;;;11.68;4.30;;;;;;;;;;6115595;23;20025;-50
2022/03/31 10:41:31;;;;;;;8.18;3.92;;;;;;;;;;6117997;23;20013;-49
2022/03/31 10:43:58;;;;;;;8.65;4.00;;;;;;;;;;6116926;23;20081;-53
2022/03/31 10:46:24;;;;;;;9.57;4.00;;;;;;;;;;6092593;23;20046;-49
2022/03/31 10:48:50;;;;;;;16.50;5.97;;;;;;;;;;6118254;23;20021;-49
2022/03/31 10:51:15;;;;;;;8.00;4.25;;;;;;;;;;6091011;23;20078;-53
2022/03/31 10:53:44;;;;;;;10.52;4.45;;;;;;;;;;6117967;23;20018;-51
2022/03/31 10:56:19;;;;;;;8.57;3.33;;;;;;;;;;6117593;23;20086;-50
2022/03/31 10:58:44;;;;;;;6.38;3.63;;;;;;;;;;6120245;23;20549;-50
2022/03/31 11:01:10;;;;;;;5.80;3.42;;;;;;;;;;6113893;23;20014;-53
2022/03/31 11:03:36;;;;;;;8.27;3.38;;;;;;;;;;6091014;23;20018;-48
2022/03/31 11:06:04;;;;;;;7.43;3.53;;;;;;;;;;6117934;23;20056;-52
2022/03/31 11:08:29;;;;;;;5.65;2.88;;;;;;;;;;6119062;23;20049;-49
2022/03/31 11:10:55;;;;;;;11.48;3.67;;;;;;;;;;6121075;23;20600;-50
2022/03/31 11:13:30;;;;;;;6.22;3.13;;;;;;;;;;6116380;23;20086;-48
2022/03/31 11:15:56;;;;;;;9.05;2.97;;;;;;;;;;6119993;23;20021;-50
2022/03/31 11:18:22;;;;;;;10.68;3.25;;;;;;;;;;6118754;23;20195;-50
2022/03/31 11:20:48;;;;;;;6.35;3.17;;;;;;;;;;6119168;23;20018;-52
2022/03/31 11:23:14;;;;;;;7.85;3.15;;;;;;;;;;6118259;23;20020;-51
2022/03/31 11:25:42;;;;;;;9.32;2.80;;;;;;;;;;6120324;23;20014;-50
2022/03/31 11:28:09;;;;;;;9.18;2.50;;;;;;;;;;6119262;23;20018;-52
2022/03/31 11:30:34;;;;;;;3.88;1.90;;;;;;;;;;6142368;23;20017;-50
2022/03/31 11:33:00;;;;;;;7.32;2.13;;;;;;;;;;6119318;23;20018;-50
2022/03/31 11:35:27;;;;;;;4.97;1.88;;;;;;;;;;6119498;23;20018;-53
2022/03/31 11:37:57;;;;;;;6.13;1.52;;;;;;;;;;6119830;23;20018;-54
2022/03/31 11:40:26;;;;;;;14.40;4.63;;;;;;;;;;6091352;23;20021;-54
2022/03/31 11:42:52;;;;;;;6.95;2.65;;;;;;;;;;6118586;23;20032;-50
2022/03/31 11:45:27;;;;;;;5.95;2.53;;;;;;;;;;6140172;23;20017;-53
2022/03/31 11:48:09;;;;;;;6.85;2.95;;;;;;;;;;6118588;23;20029;-52
2022/03/31 11:50:35;;;;;;;7.32;2.55;;;;;;;;;;6117937;23;20029;-53
2022/03/31 11:53:01;;;;;;;5.75;2.88;;;;;;;;;;6119806;23;20010;-52
2022/03/31 11:55:27;;;;;;;6.38;2.67;;;;;;;;;;6117985;23;20017;-49
2022/03/31 11:57:57;;;;;;;3.95;2.90;;;;;;;;;;6119452;23;20024;-51
2022/03/31 12:00:23;;;;;;;4.70;2.30;;;;;;;;;;6119994;23;20069;-50
2022/03/31 12:03:09;;;;;;;5.97;2.78;;;;;;;;;;6118260;23;20017;-51
2022/03/31 12:05:35;;;;;;;2.63;2.03;;;;;;;;;;6119487;23;20061;-53
2022/03/31 12:08:01;;;;;;;3.38;2.08;;;;;;;;;;6117045;23;20025;-53
2022/03/31 12:10:27;;;;;;;2.35;1.42;;;;;;;;;;6119435;23;20021;-50
2022/03/31 12:12:53;;;;;;;5.78;1.52;;;;;;;;;;6117254;23;20050;-51
2022/03/31 12:15:23;;;;;;;3.30;1.98;;;;;;;;;;6119633;23;20014;-49
2022/03/31 12:18:03;;;;;;;5.00;1.75;;;;;;;;;;6117680;23;20045;-50
2022/03/31 12:20:28;;;;;;;5.65;3.05;;;;;;;;;;6117852;23;20107;-50
2022/03/31 12:22:54;;;;;;;7.75;2.05;;;;;;;;;;6118865;23;20026;-49
2022/03/31 12:25:29;;;;;;;3.53;2.17;;;;;;;;;;6091501;23;20246;-51
2022/03/31 12:27:56;;;;;;;7.00;1.73;;;;;;;;;;6119900;23;20065;-51
2022/03/31 12:30:21;;;;;;;3.45;1.13;;;;;;;;;;6117121;23;20069;-50
2022/03/31 12:32:47;;;;;;;5.93;1.45;;;;;;;;;;6120431;23;20018;-52
2022/03/31 12:35:12;;;;;;;4.75;1.42;;;;;;;;;;6117185;23;20006;-53
2022/03/31 12:37:38;;;;;;;3.70;1.67;;;;;;;;;;6114895;23;20014;-54
2022/03/31 12:40:06;;;;;;;3.67;2.78;;;;;;;;;;6117305;23;20018;-52
2022/03/31 12:42:31;;;;;;;2.95;2.03;;;;;;;;;;6118999;23;20423;-52
2022/03/31 12:44:57;;;;;;;5.60;1.83;;;;;;;;;;6111558;23;20279;-51
2022/03/31 12:47:23;;;;;;;2.35;1.40;;;;;;;;;;6112680;23;20533;-51
2022/03/31 12:49:49;;;;;;;7.22;1.67;;;;;;;;;;6116321;23;20310;-53
2022/03/31 12:52:16;;;;;;;5.05;2.80;;;;;;;;;;6118713;23;20485;-52
2022/03/31 12:54:48;;;;;;;2.45;1.73;;;;;;;;;;6117870;23;20029;-54
2022/03/31 12:57:21;;;;;;;4.20;1.27;;;;;;;;;;6119594;23;20022;-54
2022/03/31 13:00:07;;;;;;;3.78;0.98;;;;;;;;;;6118011;23;20049;-52
2022/03/31 13:02:33;;;;;;;3.97;1.63;;;;;;;;;;6115977;23;20010;-53
2022/03/31 13:04:58;;;;;;;6.50;1.33;;;;;;;;;;6119922;23;20018;-53
2022/03/31 13:07:27;;;;;;;1.33;1.00;;;;;;;;;;6090222;23;20017;-52
2022/03/31 13:09:53;;;;;;;0.65;0.65;;;;;;;;;;6091772;23;20046;-54
2022/03/31 13:12:18;;;;;;;1.27;0.95;;;;;;;;;;6119103;23;20033;-49
2022/03/31 13:14:44;;;;;;;1.08;0.75;;;;;;;;;;6093200;23;20029;-52
2022/03/31 13:17:12;;;;;;;2.28;1.10;;;;;;;;;;6117222;23;20021;-50
2022/03/31 13:19:37;;;;;;;3.95;0.77;;;;;;;;;;6111913;23;20014;-53
2022/03/31 13:22:04;;;;;;;1.30;0.63;;;;;;;;;;6115621;23;20423;-53
2022/03/31 13:24:29;;;;;;;5.50;1.25;;;;;;;;;;6112805;23;20022;-52
2022/03/31 13:26:55;;;;;;;1.60;0.85;;;;;;;;;;6115406;23;20093;-53
2022/03/31 13:29:20;;;;;;;5.57;0.82;;;;;;;;;;6113460;23;20392;-53
2022/03/31 13:31:50;;;;;;;2.67;0.82;;;;;;;;;;6114695;23;20084;-55
2022/03/31 13:34:17;;;;;;;4.22;1.48;;;;;;;;;;6112582;23;20041;-54
2022/03/31 13:36:42;;;;;;;5.25;1.45;;;;;;;;;;6115539;23;20026;-51
2022/03/31 13:39:12;;;;;;;8.68;1.17;;;;;;;;;;6105436;23;20390;-52
2022/03/31 13:41:40;;;;;;;1.48;0.98;;;;;;;;;;6110773;23;20010;-52
2022/03/31 13:44:06;;;;;;;3.05;1.17;;;;;;;;;;6108964;23;20038;-50
2022/03/31 13:46:32;;;;;;;9.93;1.55;;;;;;;;;;6080236;23;20025;-54
2022/03/31 13:48:57;;;;;;;6.00;1.27;;;;;;;;;;6115974;23;20014;-49
2022/03/31 13:51:23;;;;;;;5.10;1.20;;;;;;;;;;6114629;23;20010;-52
2022/03/31 13:53:53;;;;;;;3.70;1.40;;;;;;;;;;6111895;23;20029;-48
2022/03/31 13:56:19;;;;;;;5.28;1.83;;;;;;;;;;6111649;23;20084;-48
2022/03/31 14:01:29;;;;;;;5.05;1.50;;;;;;;;;;6118016;23;20806;-51
2022/03/31 14:03:55;;;;;;;1.98;1.05;;;;;;;;;;6114935;23;20480;-51
2022/03/31 14:06:20;;;;;;;4.03;0.80;;;;;;;;;;6089923;23;20014;-52
2022/03/31 14:08:46;;;;;;;2.80;1.23;;;;;;;;;;6117875;23;20025;-52
2022/03/31 14:11:12;;;;;;;5.72;0.85;;;;;;;;;;6110097;23;20554;-52
2022/03/31 14:13:38;;;;;;;1.60;0.40;;;;;;;;;;6118510;23;20239;-48
2022/03/31 14:16:03;;;;;;;4.88;0.90;;;;;;;;;;6116932;23;20089;-53
2022/03/31 14:18:30;;;;;;;1.55;0.68;;;;;;;;;;6114875;23;20097;-51
2022/03/31 14:20:56;;;;;;;1.42;0.88;;;;;;;;;;6118315;23;20278;-50
2022/03/31 14:23:21;;;;;;;3.70;1.35;;;;;;;;;;6113185;23;20350;-54
2022/03/31 14:25:46;;;;;;;3.85;1.08;;;;;;;;;;6119182;23;20014;-52
2022/03/31 14:28:12;;;;;;;2.38;0.75;;;;;;;;;;6115517;23;20013;-52
2022/03/31 14:30:38;;;;;;;3.33;1.75;;;;;;;;;;6117547;23;20012;-50
2022/03/31 14:33:05;;;;;;;1.45;0.98;;;;;;;;;;6115890;23;20018;-49
2022/03/31 14:35:32;;;;;;;6.13;1.00;;;;;;;;;;6118172;23;20104;-52
2022/03/31 14:37:57;;;;;;;5.18;1.02;;;;;;;;;;6089288;23;20386;-51
2022/03/31 14:40:23;;;;;;;2.05;0.60;;;;;;;;;;6116117;23;20022;-54